createdAt,value
2017-10-12T15:17:23.871Z,1013.76
2017-10-12T15:18:07.537Z,1013.76
2017-10-12T15:18:47.986Z,1013.74
2017-10-12T15:19:28.740Z,1013.74
2017-10-12T15:20:09.556Z,1013.74
2017-10-12T15:20:49.900Z,1013.76
2017-10-12T15:21:30.857Z,1013.74
2017-10-12T15:22:11.329Z,1013.74
2017-10-12T15:22:51.710Z,1013.76
2017-10-12T15:23:32.615Z,1013.73
2017-10-12T15:24:13.075Z,1013.7
2017-10-12T15:24:53.584Z,1013.69
2017-10-12T15:25:34.068Z,1013.76
2017-10-12T15:26:14.698Z,1013.79
2017-10-12T15:26:55.201Z,1013.75
2017-10-12T15:27:35.649Z,1013.76
2017-10-12T15:28:16.794Z,1013.76
2017-10-12T15:28:57.241Z,1013.78
2017-10-12T15:29:38.045Z,1013.79
2017-10-12T15:30:19.238Z,1013.73
2017-10-12T15:30:59.790Z,1013.79
2017-10-12T15:31:40.528Z,1013.83
2017-10-12T15:32:21.274Z,1013.8
2017-10-12T15:33:16.799Z,1013.79
2017-10-12T15:33:57.503Z,1013.75
2017-10-12T15:34:38.024Z,1013.77
2017-10-12T15:35:18.533Z,1013.81
2017-10-12T15:35:59.950Z,1013.76
2017-10-12T15:36:43.120Z,1013.78
2017-10-12T15:37:23.795Z,1013.8
2017-10-12T15:38:04.158Z,1013.83
2017-10-12T15:38:44.581Z,1013.8
2017-10-12T15:39:25.589Z,1013.84
2017-10-12T15:40:40.665Z,1013.82
2017-10-12T15:41:21.621Z,1013.85
2017-10-12T15:42:02.123Z,1013.88
2017-10-12T15:42:42.732Z,1013.88
2017-10-12T15:43:23.420Z,1013.91
2017-10-12T15:44:04.397Z,1013.93
2017-10-12T15:44:45.314Z,1013.96
2017-10-12T15:45:26.906Z,1013.96
2017-10-12T15:46:07.079Z,1013.97
2017-10-12T15:46:48.265Z,1013.95
2017-10-12T15:47:28.225Z,1013.97
2017-10-12T15:48:09.103Z,1013.97
2017-10-12T15:48:49.584Z,1013.96
2017-10-12T15:49:30.761Z,1014.02
2017-10-12T15:50:11.760Z,1014
2017-10-12T15:50:51.677Z,1014
2017-10-12T15:51:32.307Z,1013.99
2017-10-12T15:52:13.647Z,1013.99
2017-10-12T15:52:53.980Z,1014
2017-10-12T15:53:34.505Z,1014.04
2017-10-12T15:54:15.006Z,1014.01
2017-10-12T15:54:55.428Z,1014.01
2017-10-12T15:55:36.264Z,1014.04
2017-10-12T15:56:16.630Z,1014
2017-10-12T15:56:57.003Z,1014.01
2017-10-12T15:57:38.741Z,1014.03
2017-10-12T15:58:18.465Z,1014.03
2017-10-12T15:58:58.878Z,1014.04
2017-10-12T15:59:39.437Z,1014.04
2017-10-12T16:00:19.892Z,1014.05
2017-10-12T16:01:00.519Z,1014.09
2017-10-12T16:01:41.404Z,1014.07
2017-10-12T16:02:22.301Z,1014.11
2017-10-12T16:03:03.717Z,1014.12
2017-10-12T16:03:44.054Z,1014.1
2017-10-12T16:04:24.643Z,1014.12
2017-10-12T16:05:05.202Z,1014.1
2017-10-12T16:05:45.741Z,1014.13
2017-10-12T16:06:26.084Z,1014.14
2017-10-12T16:07:06.858Z,1014.15
2017-10-12T16:07:47.323Z,1014.11
2017-10-12T16:08:27.697Z,1014.07
2017-10-12T16:09:08.172Z,1014.08
2017-10-12T16:09:48.752Z,1014.11
2017-10-12T16:10:45.092Z,1014.09
2017-10-12T16:11:34.956Z,1014.11
2017-10-12T16:12:15.481Z,1014.13
2017-10-12T16:12:56.103Z,1014.12
2017-10-12T16:13:36.574Z,1014.16
2017-10-12T16:14:17.015Z,1014.13
2017-10-12T16:14:59.246Z,1014.14
2017-10-12T16:15:38.955Z,1014.17
2017-10-12T16:16:19.408Z,1014.16
2017-10-12T16:16:59.917Z,1014.16
2017-10-12T16:17:40.768Z,1014.17
2017-10-12T16:18:21.749Z,1014.17
2017-10-12T16:19:01.877Z,1014.17
2017-10-12T16:19:42.208Z,1014.14
2017-10-12T16:20:22.527Z,1014.17
2017-10-12T16:21:03.223Z,1014.19
2017-10-12T16:21:43.728Z,1014.22
2017-10-12T16:23:05.170Z,1014.2
2017-10-12T16:23:45.675Z,1014.21
2017-10-12T16:24:26.355Z,1014.19
2017-10-12T16:25:07.176Z,1014.16
2017-10-12T16:27:23.574Z,1014.19
2017-10-12T16:28:04.436Z,1014.23
2017-10-12T16:28:45.403Z,1014.17
2017-10-12T16:29:26.257Z,1014.23
2017-10-12T16:30:06.707Z,1014.23
2017-10-12T16:30:47.215Z,1014.23
2017-10-12T16:31:28.063Z,1014.26
2017-10-12T16:32:08.261Z,1014.22
2017-10-12T16:33:29.867Z,1014.25
2017-10-12T16:34:10.415Z,1014.27
2017-10-12T16:34:50.681Z,1014.3
2017-10-12T16:35:31.242Z,1014.29
2017-10-12T16:36:11.783Z,1014.29
2017-10-12T16:36:52.323Z,1014.32
2017-10-12T16:37:32.692Z,1014.33
2017-10-12T16:38:13.754Z,1014.37
2017-10-12T16:38:54.641Z,1014.39
2017-10-12T16:39:35.000Z,1014.4
2017-10-12T16:40:15.449Z,1014.4
2017-10-12T16:40:56.184Z,1014.42
2017-10-12T16:41:38.384Z,1014.41
2017-10-12T16:42:20.519Z,1014.43
2017-10-12T16:43:00.945Z,1014.42
2017-10-12T16:43:41.323Z,1014.41
2017-10-12T16:44:21.836Z,1014.39
2017-10-12T16:45:02.306Z,1014.43
2017-10-12T16:45:42.705Z,1014.41
2017-10-12T16:46:23.130Z,1014.41
2017-10-12T16:47:03.582Z,1014.37
2017-10-12T16:47:44.148Z,1014.4
2017-10-12T16:48:24.475Z,1014.4
2017-10-12T16:49:04.918Z,1014.41
2017-10-12T16:49:45.305Z,1014.4
2017-10-12T16:51:06.211Z,1014.42
2017-10-12T16:51:46.626Z,1014.38
2017-10-12T16:52:27.001Z,1014.43
2017-10-12T16:53:07.479Z,1014.38
2017-10-12T16:53:47.844Z,1014.4
2017-10-12T16:54:28.429Z,1014.36
2017-10-12T16:55:08.853Z,1014.35
2017-10-12T16:55:49.240Z,1014.4
2017-10-12T16:56:29.631Z,1014.37
2017-10-12T16:57:10.028Z,1014.36
2017-10-12T16:57:50.476Z,1014.37
2017-10-12T16:58:30.921Z,1014.35
2017-10-12T16:59:11.272Z,1014.38
2017-10-12T16:59:51.666Z,1014.36
2017-10-12T17:00:32.105Z,1014.37
2017-10-12T17:01:12.516Z,1014.35
2017-10-12T17:01:52.932Z,1014.39
2017-10-12T17:02:33.354Z,1014.39
2017-10-12T17:03:13.775Z,1014.38
2017-10-12T17:03:54.216Z,1014.36
2017-10-12T17:04:34.697Z,1014.43
2017-10-12T17:05:15.157Z,1014.45
2017-10-12T17:05:55.604Z,1014.45
2017-10-12T17:06:36.044Z,1014.45
2017-10-12T17:07:16.464Z,1014.44
2017-10-12T17:07:56.901Z,1014.47
2017-10-12T17:08:37.291Z,1014.47
2017-10-12T17:09:17.680Z,1014.46
2017-10-12T17:09:58.103Z,1014.46
2017-10-12T17:10:38.463Z,1014.5
2017-10-12T17:11:18.887Z,1014.45
2017-10-12T17:11:59.286Z,1014.47
2017-10-12T17:12:39.763Z,1014.5
2017-10-12T17:13:20.102Z,1014.45
2017-10-12T17:14:00.530Z,1014.45
2017-10-12T17:14:40.989Z,1014.44
2017-10-12T17:15:21.439Z,1014.45
2017-10-12T17:16:01.829Z,1014.44
2017-10-12T17:16:42.246Z,1014.45
2017-10-12T17:17:22.748Z,1014.46
2017-10-12T17:18:03.205Z,1014.44
2017-10-12T17:18:43.550Z,1014.45
2017-10-12T17:19:23.983Z,1014.46
2017-10-12T17:20:04.350Z,1014.46
2017-10-12T17:21:25.235Z,1014.49
2017-10-12T17:22:05.648Z,1014.42
2017-10-12T17:22:46.041Z,1014.47
2017-10-12T17:24:06.894Z,1014.46
2017-10-12T17:24:47.276Z,1014.46
2017-10-12T17:25:27.723Z,1014.48
2017-10-12T17:26:08.136Z,1014.48
2017-10-12T17:26:48.539Z,1014.46
2017-10-12T17:27:28.922Z,1014.47
2017-10-12T17:28:09.361Z,1014.46
2017-10-12T17:28:49.768Z,1014.48
2017-10-12T17:29:30.217Z,1014.46
2017-10-12T17:30:10.643Z,1014.51
2017-10-12T17:30:51.117Z,1014.44
2017-10-12T17:31:31.470Z,1014.46
2017-10-12T17:32:11.882Z,1014.45
2017-10-12T17:32:52.382Z,1014.43
2017-10-12T17:33:32.877Z,1014.47
2017-10-12T17:34:13.329Z,1014.46
2017-10-12T17:34:53.757Z,1014.5
2017-10-12T17:35:34.219Z,1014.48
2017-10-12T17:36:14.654Z,1014.46
2017-10-12T17:36:55.129Z,1014.49
2017-10-12T17:37:35.638Z,1014.44
2017-10-12T17:38:15.978Z,1014.45
2017-10-12T17:38:56.483Z,1014.44
2017-10-12T17:39:36.775Z,1014.43
2017-10-12T17:40:17.168Z,1014.44
2017-10-12T17:40:57.626Z,1014.4
2017-10-12T17:41:38.045Z,1014.4
2017-10-12T17:42:18.494Z,1014.44
2017-10-12T17:42:58.883Z,1014.44
2017-10-12T17:43:39.307Z,1014.45
2017-10-12T17:44:19.764Z,1014.4
2017-10-12T17:45:00.101Z,1014.43
2017-10-12T17:45:40.561Z,1014.38
2017-10-12T17:46:21.001Z,1014.4
2017-10-12T17:47:01.463Z,1014.43
2017-10-12T17:47:41.900Z,1014.42
2017-10-12T17:48:22.295Z,1014.45
2017-10-12T17:49:02.724Z,1014.45
2017-10-12T17:49:43.095Z,1014.44
2017-10-12T17:50:23.487Z,1014.46
2017-10-12T17:51:03.963Z,1014.51
2017-10-12T17:51:44.308Z,1014.46
2017-10-12T17:52:24.804Z,1014.51
2017-10-12T17:53:05.237Z,1014.51
2017-10-12T17:53:45.677Z,1014.49
2017-10-12T17:54:41.176Z,1014.5
2017-10-12T17:55:06.537Z,1014.48
2017-10-12T17:55:46.985Z,1014.49
2017-10-12T17:56:27.405Z,1014.45
2017-10-12T17:57:07.792Z,1014.48
2017-10-12T17:57:48.288Z,1014.45
2017-10-12T17:58:28.744Z,1014.47
2017-10-12T17:59:09.149Z,1014.49
2017-10-12T17:59:49.560Z,1014.46
2017-10-12T18:00:29.946Z,1014.48
2017-10-12T18:01:10.501Z,1014.45
2017-10-12T18:01:50.898Z,1014.45
2017-10-12T18:02:31.331Z,1014.46
2017-10-12T18:03:11.749Z,1014.45
2017-10-12T18:03:52.109Z,1014.48
2017-10-12T18:04:47.556Z,1014.47
2017-10-12T18:05:13.004Z,1014.5
2017-10-12T18:05:53.433Z,1014.46
2017-10-12T18:06:33.786Z,1014.47
2017-10-12T18:07:14.133Z,1014.46
2017-10-12T18:07:54.556Z,1014.48
2017-10-12T18:08:35.055Z,1014.5
2017-10-12T18:09:55.981Z,1014.51
2017-10-12T18:10:36.388Z,1014.51
2017-10-12T18:11:16.845Z,1014.51
2017-10-12T18:12:37.704Z,1014.54
2017-10-12T18:13:18.128Z,1014.54
2017-10-12T18:13:58.546Z,1014.54
2017-10-12T18:14:38.914Z,1014.56
2017-10-12T18:15:19.321Z,1014.54
2017-10-12T18:15:59.802Z,1014.6
2017-10-12T18:16:40.181Z,1014.57
2017-10-12T18:17:20.632Z,1014.57
2017-10-12T18:18:01.048Z,1014.58
2017-10-12T18:18:41.504Z,1014.59
2017-10-12T18:19:21.911Z,1014.6
2017-10-12T18:20:02.304Z,1014.62
2017-10-12T18:20:42.670Z,1014.6
2017-10-12T18:21:23.131Z,1014.61
2017-10-12T18:22:03.588Z,1014.62
2017-10-12T18:22:44.030Z,1014.61
2017-10-12T18:23:24.489Z,1014.61
2017-10-12T18:24:04.899Z,1014.64
2017-10-12T18:24:45.326Z,1014.62
2017-10-12T18:25:25.768Z,1014.58
2017-10-12T18:26:06.211Z,1014.56
2017-10-12T18:26:46.620Z,1014.56
2017-10-12T18:27:27.047Z,1014.59
2017-10-12T18:28:07.474Z,1014.59
2017-10-12T18:28:47.911Z,1014.57
2017-10-12T18:29:28.376Z,1014.6
2017-10-12T18:30:08.805Z,1014.59
2017-10-12T18:30:49.255Z,1014.55
2017-10-12T18:31:29.680Z,1014.52
2017-10-12T18:32:10.069Z,1014.52
2017-10-12T18:32:50.515Z,1014.53
2017-10-12T18:33:30.899Z,1014.58
2017-10-12T18:34:11.312Z,1014.51
2017-10-12T18:34:51.764Z,1014.51
2017-10-12T18:35:32.102Z,1014.53
2017-10-12T18:36:12.655Z,1014.53
2017-10-12T18:36:53.115Z,1014.56
2017-10-12T18:37:33.546Z,1014.54
2017-10-12T18:38:13.965Z,1014.57
2017-10-12T18:38:54.331Z,1014.6
2017-10-12T18:39:34.760Z,1014.65
2017-10-12T18:40:15.172Z,1014.64
2017-10-12T18:40:55.589Z,1014.65
2017-10-12T18:41:36.067Z,1014.67
2017-10-12T18:42:16.522Z,1014.72
2017-10-12T18:42:56.930Z,1014.7
2017-10-12T18:43:37.324Z,1014.7
2017-10-12T18:44:17.665Z,1014.69
2017-10-12T18:44:58.103Z,1014.69
2017-10-12T18:45:38.502Z,1014.68
2017-10-12T18:46:18.941Z,1014.69
2017-10-12T18:46:59.333Z,1014.73
2017-10-12T18:47:39.758Z,1014.73
2017-10-12T18:48:20.146Z,1014.72
2017-10-12T18:49:00.684Z,1014.74
2017-10-12T18:49:41.081Z,1014.72
2017-10-12T18:50:21.549Z,1014.77
2017-10-12T18:51:01.926Z,1014.75
2017-10-12T18:51:42.419Z,1014.74
2017-10-12T18:52:22.731Z,1014.72
2017-10-12T18:53:03.211Z,1014.75
2017-10-12T18:53:43.647Z,1014.75
2017-10-12T18:54:24.094Z,1014.76
2017-10-12T18:55:04.446Z,1014.78
2017-10-12T18:55:44.842Z,1014.78
2017-10-12T18:56:25.354Z,1014.77
2017-10-12T18:57:05.756Z,1014.74
2017-10-12T18:57:46.235Z,1014.73
2017-10-12T18:58:26.595Z,1014.74
2017-10-12T18:59:07.000Z,1014.71
2017-10-12T18:59:47.493Z,1014.72
2017-10-12T19:00:27.929Z,1014.7
2017-10-12T19:01:08.287Z,1014.72
2017-10-12T19:01:48.789Z,1014.73
2017-10-12T19:02:29.192Z,1014.68
2017-10-12T19:03:09.640Z,1014.67
2017-10-12T19:03:49.998Z,1014.64
2017-10-12T19:04:30.491Z,1014.67
2017-10-12T19:05:10.920Z,1014.65
2017-10-12T19:05:51.288Z,1014.65
2017-10-12T19:06:31.706Z,1014.67
2017-10-12T19:07:12.126Z,1014.67
2017-10-12T19:07:52.570Z,1014.7
2017-10-12T19:08:32.946Z,1014.7
2017-10-12T19:09:13.317Z,1014.69
2017-10-12T19:09:53.705Z,1014.65
2017-10-12T19:10:34.109Z,1014.67
2017-10-12T19:11:14.515Z,1014.71
2017-10-12T19:11:54.948Z,1014.71
2017-10-12T19:12:35.301Z,1014.71
2017-10-12T19:13:15.784Z,1014.68
2017-10-12T19:13:56.185Z,1014.69
2017-10-12T19:14:36.616Z,1014.68
2017-10-12T19:15:16.977Z,1014.66
2017-10-12T19:15:57.504Z,1014.66
2017-10-12T19:16:37.917Z,1014.67
2017-10-12T19:17:18.311Z,1014.67
2017-10-12T19:17:58.752Z,1014.65
2017-10-12T19:18:39.216Z,1014.66
2017-10-12T19:19:19.628Z,1014.68
2017-10-12T19:20:00.038Z,1014.7
2017-10-12T19:20:40.453Z,1014.69
2017-10-12T19:21:20.849Z,1014.74
2017-10-12T19:22:01.214Z,1014.71
2017-10-12T19:22:41.615Z,1014.71
2017-10-12T19:23:21.986Z,1014.75
2017-10-12T19:24:02.430Z,1014.75
2017-10-12T19:24:42.806Z,1014.76
2017-10-12T19:25:23.286Z,1014.75
2017-10-12T19:26:03.687Z,1014.76
2017-10-12T19:26:44.103Z,1014.78
2017-10-12T19:27:24.542Z,1014.76
2017-10-12T19:28:45.326Z,1014.77
2017-10-12T19:29:25.779Z,1014.76
2017-10-12T19:30:06.173Z,1014.81
2017-10-12T19:30:46.612Z,1014.85
2017-10-12T19:31:27.060Z,1014.81
2017-10-12T19:32:07.463Z,1014.83
2017-10-12T19:32:47.841Z,1014.81
2017-10-12T19:33:28.251Z,1014.82
2017-10-12T19:34:08.645Z,1014.82
2017-10-12T19:34:49.105Z,1014.82
2017-10-12T19:35:29.509Z,1014.8
2017-10-12T19:36:09.967Z,1014.81
2017-10-12T19:36:50.415Z,1014.78
2017-10-12T19:37:30.850Z,1014.8
2017-10-12T19:38:51.639Z,1014.77
2017-10-12T19:39:32.126Z,1014.78
2017-10-12T19:40:12.514Z,1014.77
2017-10-12T19:41:33.372Z,1014.78
2017-10-12T19:42:13.807Z,1014.76
2017-10-12T19:42:54.245Z,1014.73
2017-10-12T19:43:34.726Z,1014.75
2017-10-12T19:44:15.057Z,1014.76
2017-10-12T19:44:55.456Z,1014.76
2017-10-12T19:45:35.892Z,1014.82
2017-10-12T19:46:16.295Z,1014.74
2017-10-12T19:46:56.741Z,1014.8
2017-10-12T19:47:37.169Z,1014.78
2017-10-12T19:48:17.551Z,1014.79
2017-10-12T19:48:58.073Z,1014.8
2017-10-12T19:49:38.484Z,1014.8
2017-10-12T19:50:18.842Z,1014.84
2017-10-12T19:51:28.707Z,1014.87
2017-10-12T19:51:39.661Z,1014.89
2017-10-12T19:52:20.097Z,1014.88
2017-10-12T19:53:00.477Z,1014.86
2017-10-12T19:53:40.899Z,1014.84
2017-10-12T19:54:21.257Z,1014.86
2017-10-12T19:55:01.667Z,1014.8
2017-10-12T19:55:42.117Z,1014.85
2017-10-12T19:56:22.501Z,1014.81
2017-10-12T19:57:02.936Z,1014.83
2017-10-12T19:57:43.482Z,1014.79
2017-10-12T19:58:23.973Z,1014.78
2017-10-12T19:59:04.361Z,1014.85
2017-10-12T19:59:44.736Z,1014.83
2017-10-12T20:00:25.150Z,1014.85
2017-10-12T20:01:05.627Z,1014.84
2017-10-12T20:01:45.990Z,1014.85
2017-10-12T20:02:26.494Z,1014.83
2017-10-12T20:03:06.884Z,1014.77
2017-10-12T20:03:47.324Z,1014.82
2017-10-12T20:04:27.757Z,1014.81
2017-10-12T20:05:08.199Z,1014.85
2017-10-12T20:05:48.637Z,1014.86
2017-10-12T20:06:29.090Z,1014.82
2017-10-12T20:07:09.485Z,1014.84
2017-10-12T20:07:49.936Z,1014.85
2017-10-12T20:08:30.370Z,1014.77
2017-10-12T20:09:10.930Z,1014.8
2017-10-12T20:09:51.355Z,1014.82
2017-10-12T20:10:31.772Z,1014.78
2017-10-12T20:11:12.270Z,1014.78
2017-10-12T20:11:52.620Z,1014.81
2017-10-12T20:12:33.038Z,1014.88
2017-10-12T20:13:13.413Z,1014.86
2017-10-12T20:14:34.250Z,1014.85
2017-10-12T20:15:14.636Z,1014.91
2017-10-12T20:15:55.040Z,1014.91
2017-10-12T20:16:35.479Z,1014.9
2017-10-12T20:17:15.910Z,1014.93
2017-10-12T20:17:56.327Z,1014.95
2017-10-12T20:18:36.661Z,1014.95
2017-10-12T20:19:17.190Z,1014.92
2017-10-12T20:19:57.575Z,1014.94
2017-10-12T20:20:37.962Z,1014.94
2017-10-12T20:21:18.366Z,1014.92
2017-10-12T20:21:58.722Z,1014.93
2017-10-12T20:22:39.207Z,1014.94
2017-10-12T20:23:19.668Z,1014.95
2017-10-12T20:24:30.006Z,1014.92
2017-10-12T20:24:40.490Z,1014.92
2017-10-12T20:25:20.920Z,1014.93
2017-10-12T20:26:01.280Z,1014.92
2017-10-12T20:26:41.641Z,1014.94
2017-10-12T20:27:22.090Z,1014.89
2017-10-12T20:28:02.455Z,1014.9
2017-10-12T20:28:42.844Z,1014.9
2017-10-12T20:30:03.622Z,1014.9
2017-10-12T20:30:44.075Z,1014.89
2017-10-12T20:31:24.457Z,1014.88
2017-10-12T20:32:04.946Z,1014.9
2017-10-12T20:32:45.371Z,1014.9
2017-10-12T20:33:25.720Z,1014.92
2017-10-12T20:34:06.174Z,1014.91
2017-10-12T20:34:46.675Z,1014.92
2017-10-12T20:35:27.080Z,1014.91
2017-10-12T20:36:07.551Z,1014.91
2017-10-12T20:36:47.934Z,1014.94
2017-10-12T20:37:28.299Z,1014.92
2017-10-12T20:38:08.777Z,1014.95
2017-10-12T20:38:49.226Z,1014.94
2017-10-12T20:39:29.816Z,1014.96
2017-10-12T20:40:10.156Z,1014.98
2017-10-12T20:40:50.602Z,1015.04
2017-10-12T20:41:31.039Z,1015.03
2017-10-12T20:42:51.917Z,1014.98
2017-10-12T20:43:32.311Z,1014.97
2017-10-12T20:44:13.987Z,1014.97
2017-10-12T20:44:54.570Z,1014.96
2017-10-12T20:45:35.277Z,1014.97
2017-10-12T20:46:15.508Z,1014.99
2017-10-12T20:47:37.450Z,1014.92
2017-10-12T20:48:17.888Z,1014.95
2017-10-12T20:48:58.310Z,1014.98
2017-10-12T20:51:35.404Z,1015.03
2017-10-12T20:52:28.104Z,1015.02
2017-10-12T20:53:20.451Z,1015.02
2017-10-12T20:54:13.289Z,1015.02
2017-10-12T20:55:12.633Z,1015.01
2017-10-12T20:55:59.246Z,1015.04
2017-10-12T20:56:51.401Z,1015.02
2017-10-12T20:57:44.021Z,1015.05
2017-10-12T20:58:39.980Z,1015.03
2017-10-12T20:59:33.660Z,1015.06
2017-10-12T21:00:26.918Z,1015.05
2017-10-12T21:01:19.576Z,1015.01
2017-10-12T21:02:12.821Z,1014.99
2017-10-12T21:03:05.835Z,1015.01
2017-10-12T21:03:58.580Z,1015.01
2017-10-12T21:04:50.884Z,1014.96
2017-10-12T21:05:43.318Z,1014.99
2017-10-12T21:06:37.393Z,1014.98
2017-10-12T21:07:29.885Z,1014.98
2017-10-12T21:08:22.474Z,1014.95
2017-10-12T21:09:14.512Z,1015.01
2017-10-12T21:10:06.971Z,1015.01
2017-10-12T21:10:58.800Z,1015.05
2017-10-12T21:11:51.306Z,1015.03
2017-10-12T21:12:44.562Z,1015.04
2017-10-12T21:13:38.135Z,1015.04
2017-10-12T21:14:30.926Z,1015.03
2017-10-12T21:15:22.807Z,1015.03
2017-10-12T21:16:15.037Z,1015.02
2017-10-12T21:17:07.477Z,1015.01
2017-10-12T21:18:00.065Z,1015.02
2017-10-12T21:18:52.389Z,1015
2017-10-12T21:19:44.560Z,1015.03
2017-10-12T21:20:36.813Z,1014.98
2017-10-12T21:21:29.337Z,1014.98
2017-10-12T21:22:21.468Z,1014.94
2017-10-12T21:23:14.303Z,1014.89
2017-10-12T21:24:06.493Z,1014.88
2017-10-12T21:24:58.895Z,1014.9
2017-10-12T21:25:51.085Z,1014.94
2017-10-12T21:26:43.452Z,1014.93
2017-10-12T21:27:35.014Z,1014.96
2017-10-12T21:28:15.300Z,1014.93
2017-10-12T21:28:55.673Z,1014.95
2017-10-12T21:29:36.133Z,1014.95
2017-10-12T21:30:16.562Z,1014.94
2017-10-12T21:30:57.021Z,1014.95
2017-10-12T21:31:37.375Z,1014.94
2017-10-12T21:32:17.844Z,1014.91
2017-10-12T21:32:58.217Z,1014.93
2017-10-12T21:33:38.622Z,1014.94
2017-10-12T21:34:19.195Z,1014.91
2017-10-12T21:34:59.899Z,1014.91
2017-10-12T21:35:40.300Z,1014.92
2017-10-12T21:36:20.667Z,1014.88
2017-10-12T21:37:01.879Z,1014.81
2017-10-12T21:37:42.275Z,1014.78
2017-10-12T21:38:22.746Z,1014.79
2017-10-12T21:39:03.223Z,1014.79
2017-10-12T21:39:43.627Z,1014.77
2017-10-12T21:40:23.959Z,1014.82
2017-10-12T21:41:04.435Z,1014.8
2017-10-12T21:41:45.010Z,1014.81
2017-10-12T21:42:25.416Z,1014.82
2017-10-12T21:43:05.775Z,1014.87
2017-10-12T21:43:46.317Z,1014.79
2017-10-12T21:44:26.740Z,1014.85
2017-10-12T21:45:07.247Z,1014.84
2017-10-12T21:45:47.651Z,1014.82
2017-10-12T21:46:28.084Z,1014.86
2017-10-12T21:47:08.493Z,1014.85
2017-10-12T21:47:48.944Z,1014.87
2017-10-12T21:48:29.521Z,1014.86
2017-10-12T21:49:09.895Z,1014.84
2017-10-12T21:49:50.393Z,1014.88
2017-10-12T21:50:30.756Z,1014.84
2017-10-12T21:51:11.167Z,1014.88
2017-10-12T21:51:51.676Z,1014.84
2017-10-12T21:52:32.031Z,1014.87
2017-10-12T21:53:12.413Z,1014.87
2017-10-12T21:53:52.873Z,1014.87
2017-10-12T21:54:33.416Z,1014.87
2017-10-12T21:55:13.821Z,1014.88
2017-10-12T21:55:54.210Z,1014.83
2017-10-12T21:56:34.584Z,1014.82
2017-10-12T21:57:15.028Z,1014.85
2017-10-12T21:57:55.548Z,1014.82
2017-10-12T21:58:36.017Z,1014.82
2017-10-12T21:59:16.453Z,1014.77
2017-10-12T21:59:56.953Z,1014.77
2017-10-12T22:00:37.388Z,1014.77
2017-10-12T22:01:17.752Z,1014.75
2017-10-12T22:01:58.151Z,1014.74
2017-10-12T22:02:38.535Z,1014.74
2017-10-12T22:03:18.962Z,1014.79
2017-10-12T22:03:59.414Z,1014.77
2017-10-12T22:04:39.880Z,1014.78
2017-10-12T22:05:20.285Z,1014.79
2017-10-12T22:06:00.722Z,1014.81
2017-10-12T22:06:41.120Z,1014.84
2017-10-12T22:07:21.576Z,1014.83
2017-10-12T22:08:01.909Z,1014.84
2017-10-12T22:08:42.306Z,1014.81
2017-10-12T22:09:22.738Z,1014.79
2017-10-12T22:10:03.169Z,1014.83
2017-10-12T22:10:43.600Z,1014.82
2017-10-12T22:11:24.022Z,1014.84
2017-10-12T22:12:04.417Z,1014.77
2017-10-12T22:12:44.837Z,1014.78
2017-10-12T22:13:25.277Z,1014.79
2017-10-12T22:14:05.612Z,1014.75
2017-10-12T22:14:46.151Z,1014.76
2017-10-12T22:15:26.589Z,1014.8
2017-10-12T22:16:07.012Z,1014.76
2017-10-12T22:16:47.447Z,1014.77
2017-10-12T22:17:28.055Z,1014.79
2017-10-12T22:18:08.505Z,1014.8
2017-10-12T22:18:48.991Z,1014.81
2017-10-12T22:19:29.369Z,1014.77
2017-10-12T22:20:09.864Z,1014.79
2017-10-12T22:20:50.250Z,1014.73
2017-10-12T22:21:30.774Z,1014.77
2017-10-12T22:22:11.093Z,1014.76
2017-10-12T22:22:51.560Z,1014.76
2017-10-12T22:23:32.021Z,1014.77
2017-10-12T22:24:12.451Z,1014.78
2017-10-12T22:24:53.121Z,1014.8
2017-10-12T22:25:33.453Z,1014.79
2017-10-12T22:26:13.930Z,1014.81
2017-10-12T22:26:54.347Z,1014.77
2017-10-12T22:27:34.831Z,1014.78
2017-10-12T22:28:15.211Z,1014.79
2017-10-12T22:28:55.708Z,1014.83
2017-10-12T22:29:36.070Z,1014.85
2017-10-12T22:30:16.581Z,1014.77
2017-10-12T22:30:56.942Z,1014.77
2017-10-12T22:31:37.364Z,1014.82
2017-10-12T22:32:17.750Z,1014.81
2017-10-12T22:32:58.173Z,1014.82
2017-10-12T22:33:38.611Z,1014.82
2017-10-12T22:34:19.023Z,1014.8
2017-10-12T22:34:59.473Z,1014.81
2017-10-12T22:35:39.927Z,1014.84
2017-10-12T22:36:20.481Z,1014.81
2017-10-12T22:37:00.992Z,1014.84
2017-10-12T22:37:41.395Z,1014.8
2017-10-12T22:38:21.816Z,1014.79
2017-10-12T22:39:02.226Z,1014.82
2017-10-12T22:39:42.619Z,1014.78
2017-10-12T22:40:22.973Z,1014.75
2017-10-12T22:41:03.518Z,1014.76
2017-10-12T22:41:43.928Z,1014.72
2017-10-12T22:42:24.387Z,1014.73
2017-10-12T22:43:04.871Z,1014.73
2017-10-12T22:43:45.340Z,1014.74
2017-10-12T22:44:25.664Z,1014.8
2017-10-12T22:45:06.179Z,1014.76
2017-10-12T22:45:46.587Z,1014.73
2017-10-12T22:46:27.092Z,1014.78
2017-10-12T22:47:07.590Z,1014.74
2017-10-12T22:47:47.976Z,1014.78
2017-10-12T22:48:28.408Z,1014.78
2017-10-12T22:49:08.810Z,1014.79
2017-10-12T22:49:49.195Z,1014.79
2017-10-12T22:50:29.617Z,1014.83
2017-10-12T22:51:09.984Z,1014.83
2017-10-12T22:51:50.395Z,1014.8
2017-10-12T22:52:30.838Z,1014.84
2017-10-12T22:53:11.230Z,1014.79
2017-10-12T22:53:51.619Z,1014.81
2017-10-12T22:54:31.996Z,1014.8
2017-10-12T22:55:12.461Z,1014.81
2017-10-12T22:55:52.865Z,1014.81
2017-10-12T22:56:33.342Z,1014.82
2017-10-12T22:57:13.673Z,1014.82
2017-10-12T22:57:54.210Z,1014.79
2017-10-12T22:58:34.574Z,1014.81
2017-10-12T22:59:14.995Z,1014.79
2017-10-12T22:59:55.400Z,1014.78
2017-10-12T23:00:35.748Z,1014.78
2017-10-12T23:01:16.216Z,1014.78
2017-10-12T23:01:56.776Z,1014.76
2017-10-12T23:02:37.155Z,1014.76
2017-10-12T23:03:17.761Z,1014.75
2017-10-12T23:03:58.169Z,1014.72
2017-10-12T23:04:38.534Z,1014.71
2017-10-12T23:05:18.959Z,1014.75
2017-10-12T23:05:59.359Z,1014.72
2017-10-12T23:06:39.827Z,1014.73
2017-10-12T23:07:20.303Z,1014.73
2017-10-12T23:08:00.710Z,1014.77
2017-10-12T23:08:41.111Z,1014.76
2017-10-12T23:09:21.642Z,1014.78
2017-10-12T23:10:01.985Z,1014.78
2017-10-12T23:10:42.434Z,1014.74
2017-10-12T23:11:22.865Z,1014.75
2017-10-12T23:12:03.326Z,1014.73
2017-10-12T23:12:43.764Z,1014.74
2017-10-12T23:13:24.279Z,1014.73
2017-10-12T23:14:04.667Z,1014.73
2017-10-12T23:14:45.209Z,1014.74
2017-10-12T23:15:25.714Z,1014.77
2017-10-12T23:16:06.158Z,1014.74
2017-10-12T23:16:46.612Z,1014.72
2017-10-12T23:17:27.080Z,1014.77
2017-10-12T23:18:07.389Z,1014.72
2017-10-12T23:18:47.817Z,1014.7
2017-10-12T23:19:28.257Z,1014.74
2017-10-12T23:20:08.619Z,1014.72
2017-10-12T23:20:49.018Z,1014.73
2017-10-12T23:21:29.519Z,1014.75
2017-10-12T23:22:09.934Z,1014.74
2017-10-12T23:22:50.322Z,1014.73
2017-10-12T23:23:30.740Z,1014.81
2017-10-12T23:24:11.122Z,1014.8
2017-10-12T23:24:51.599Z,1014.78
2017-10-12T23:25:32.000Z,1014.82
2017-10-12T23:26:12.317Z,1014.82
2017-10-12T23:26:52.787Z,1014.81
2017-10-12T23:27:33.204Z,1014.75
2017-10-12T23:28:13.587Z,1014.79
2017-10-12T23:28:53.944Z,1014.79
2017-10-12T23:29:34.329Z,1014.79
2017-10-12T23:30:14.809Z,1014.77
2017-10-12T23:30:55.252Z,1014.77
2017-10-12T23:31:35.674Z,1014.75
2017-10-12T23:32:16.229Z,1014.78
2017-10-12T23:32:56.755Z,1014.79
2017-10-12T23:33:37.117Z,1014.82
2017-10-12T23:34:17.466Z,1014.8
2017-10-12T23:34:57.968Z,1014.78
2017-10-12T23:35:38.324Z,1014.73
2017-10-12T23:36:18.805Z,1014.73
2017-10-12T23:36:59.351Z,1014.77
2017-10-12T23:37:39.687Z,1014.8
2017-10-12T23:38:20.071Z,1014.79
2017-10-12T23:39:00.466Z,1014.83
2017-10-12T23:39:40.928Z,1014.89
2017-10-12T23:40:21.351Z,1014.84
2017-10-12T23:41:01.743Z,1014.84
2017-10-12T23:41:42.174Z,1014.88
2017-10-12T23:42:22.725Z,1014.85
2017-10-12T23:43:03.079Z,1014.89
2017-10-12T23:43:43.615Z,1014.86
2017-10-12T23:44:24.060Z,1014.87
2017-10-12T23:45:04.516Z,1014.9
2017-10-12T23:45:45.012Z,1014.88
2017-10-12T23:46:25.399Z,1014.87
2017-10-12T23:47:05.875Z,1014.86
2017-10-12T23:47:46.325Z,1014.84
2017-10-12T23:48:26.639Z,1014.83
2017-10-12T23:49:07.169Z,1014.83
2017-10-12T23:49:47.623Z,1014.84
2017-10-12T23:50:27.990Z,1014.82
2017-10-12T23:51:08.425Z,1014.86